sensor_id;sensor_type;location;lat;lon;timestamp;P1;durP1;ratioP1;P2;durP2;ratioP2
18168;SDS011;49877;50.398;30.324;2022-08-21T00:00:04;25.73;;;8.03;;
18168;SDS011;49877;50.398;30.324;2022-08-21T00:02:32;29.27;;;8.40;;
18168;SDS011;49877;50.398;30.324;2022-08-21T00:04:59;24.77;;;8.07;;
18168;SDS011;49877;50.398;30.324;2022-08-21T00:07:29;33.63;;;7.97;;
18168;SDS011;49877;50.398;30.324;2022-08-21T00:09:55;19.27;;;6.80;;
18168;SDS011;49877;50.398;30.324;2022-08-21T00:12:23;35.17;;;8.23;;
18168;SDS011;49877;50.398;30.324;2022-08-21T00:14:50;27.13;;;7.30;;
18168;SDS011;49877;50.398;30.324;2022-08-21T00:17:17;30.13;;;8.50;;
18168;SDS011;49877;50.398;30.324;2022-08-21T00:19:44;25.07;;;7.70;;
18168;SDS011;49877;50.398;30.324;2022-08-21T00:22:11;28.90;;;8.53;;
18168;SDS011;49877;50.398;30.324;2022-08-21T00:24:39;21.03;;;8.03;;
18168;SDS011;49877;50.398;30.324;2022-08-21T00:27:06;23.93;;;8.13;;
18168;SDS011;49877;50.398;30.324;2022-08-21T00:29:33;25.00;;;8.10;;
18168;SDS011;49877;50.398;30.324;2022-08-21T00:32:00;29.90;;;8.33;;
18168;SDS011;49877;50.398;30.324;2022-08-21T00:34:27;30.30;;;8.27;;
18168;SDS011;49877;50.398;30.324;2022-08-21T00:36:54;24.83;;;8.07;;
18168;SDS011;49877;50.398;30.324;2022-08-21T00:39:21;25.73;;;8.13;;
18168;SDS011;49877;50.398;30.324;2022-08-21T00:41:49;26.70;;;8.93;;
18168;SDS011;49877;50.398;30.324;2022-08-21T00:44:16;25.43;;;8.53;;
18168;SDS011;49877;50.398;30.324;2022-08-21T00:46:43;31.27;;;9.37;;
18168;SDS011;49877;50.398;30.324;2022-08-21T00:49:11;32.77;;;8.57;;
18168;SDS011;49877;50.398;30.324;2022-08-21T00:51:39;28.17;;;8.90;;
18168;SDS011;49877;50.398;30.324;2022-08-21T00:54:10;31.90;;;8.80;;
18168;SDS011;49877;50.398;30.324;2022-08-21T00:56:38;29.83;;;9.20;;
18168;SDS011;49877;50.398;30.324;2022-08-21T00:59:06;23.20;;;8.63;;
18168;SDS011;49877;50.398;30.324;2022-08-21T01:01:34;22.63;;;8.70;;
18168;SDS011;49877;50.398;30.324;2022-08-21T01:04:01;26.20;;;9.47;;
18168;SDS011;49877;50.398;30.324;2022-08-21T01:06:28;32.60;;;8.87;;
18168;SDS011;49877;50.398;30.324;2022-08-21T01:08:55;24.63;;;8.67;;
18168;SDS011;49877;50.398;30.324;2022-08-21T01:11:22;31.13;;;9.47;;
18168;SDS011;49877;50.398;30.324;2022-08-21T01:13:49;25.13;;;8.63;;
18168;SDS011;49877;50.398;30.324;2022-08-21T01:16:18;29.80;;;8.80;;
18168;SDS011;49877;50.398;30.324;2022-08-21T01:18:47;27.53;;;8.63;;
18168;SDS011;49877;50.398;30.324;2022-08-21T01:21:18;28.00;;;8.70;;
18168;SDS011;49877;50.398;30.324;2022-08-21T01:23:48;25.43;;;8.50;;
18168;SDS011;49877;50.398;30.324;2022-08-21T01:26:18;23.30;;;8.57;;
18168;SDS011;49877;50.398;30.324;2022-08-21T01:28:48;28.57;;;8.47;;
18168;SDS011;49877;50.398;30.324;2022-08-21T01:31:24;28.30;;;9.50;;
18168;SDS011;49877;50.398;30.324;2022-08-21T01:33:53;32.03;;;9.50;;
18168;SDS011;49877;50.398;30.324;2022-08-21T01:36:22;29.73;;;8.30;;
18168;SDS011;49877;50.398;30.324;2022-08-21T01:38:50;28.60;;;8.37;;
18168;SDS011;49877;50.398;30.324;2022-08-21T01:41:17;26.07;;;8.90;;
18168;SDS011;49877;50.398;30.324;2022-08-21T01:43:44;29.47;;;8.37;;
18168;SDS011;49877;50.398;30.324;2022-08-21T01:46:11;31.63;;;8.47;;
18168;SDS011;49877;50.398;30.324;2022-08-21T01:48:39;28.43;;;8.47;;
18168;SDS011;49877;50.398;30.324;2022-08-21T01:51:06;26.20;;;8.13;;
18168;SDS011;49877;50.398;30.324;2022-08-21T01:53:35;17.47;;;7.33;;
18168;SDS011;49877;50.398;30.324;2022-08-21T01:56:04;20.37;;;7.37;;
18168;SDS011;49877;50.398;30.324;2022-08-21T01:58:34;24.43;;;7.87;;
18168;SDS011;49877;50.398;30.324;2022-08-21T02:01:01;22.97;;;7.47;;
18168;SDS011;49877;50.398;30.324;2022-08-21T02:03:29;25.37;;;7.30;;
18168;SDS011;49877;50.398;30.324;2022-08-21T02:05:57;29.90;;;8.00;;
18168;SDS011;49877;50.398;30.324;2022-08-21T02:08:24;28.43;;;7.53;;
18168;SDS011;49877;50.398;30.324;2022-08-21T02:10:52;22.90;;;7.50;;
18168;SDS011;49877;50.398;30.324;2022-08-21T02:13:19;26.23;;;7.37;;
18168;SDS011;49877;50.398;30.324;2022-08-21T02:15:47;26.77;;;8.10;;
18168;SDS011;49877;50.398;30.324;2022-08-21T02:18:14;23.33;;;8.27;;
18168;SDS011;49877;50.398;30.324;2022-08-21T02:20:42;26.03;;;7.67;;
18168;SDS011;49877;50.398;30.324;2022-08-21T02:23:12;44.93;;;8.60;;
18168;SDS011;49877;50.398;30.324;2022-08-21T02:25:40;24.30;;;7.13;;
18168;SDS011;49877;50.398;30.324;2022-08-21T02:28:11;31.47;;;8.50;;
18168;SDS011;49877;50.398;30.324;2022-08-21T02:30:40;25.30;;;8.23;;
18168;SDS011;49877;50.398;30.324;2022-08-21T02:33:09;26.80;;;8.33;;
18168;SDS011;49877;50.398;30.324;2022-08-21T02:35:37;23.87;;;8.07;;
18168;SDS011;49877;50.398;30.324;2022-08-21T02:38:06;25.20;;;8.40;;
18168;SDS011;49877;50.398;30.324;2022-08-21T02:40:37;26.60;;;8.47;;
18168;SDS011;49877;50.398;30.324;2022-08-21T02:43:06;29.83;;;9.07;;
18168;SDS011;49877;50.398;30.324;2022-08-21T02:45:35;30.63;;;9.87;;
18168;SDS011;49877;50.398;30.324;2022-08-21T02:48:03;29.43;;;9.20;;
18168;SDS011;49877;50.398;30.324;2022-08-21T02:50:33;21.87;;;9.30;;
18168;SDS011;49877;50.398;30.324;2022-08-21T02:53:02;21.03;;;8.70;;
18168;SDS011;49877;50.398;30.324;2022-08-21T02:55:30;27.57;;;9.13;;
18168;SDS011;49877;50.398;30.324;2022-08-21T02:57:58;26.50;;;9.23;;
18168;SDS011;49877;50.398;30.324;2022-08-21T03:00:26;28.63;;;9.43;;
18168;SDS011;49877;50.398;30.324;2022-08-21T03:02:56;23.53;;;9.70;;
18168;SDS011;49877;50.398;30.324;2022-08-21T03:05:24;29.83;;;9.53;;
18168;SDS011;49877;50.398;30.324;2022-08-21T03:07:53;32.37;;;9.00;;
18168;SDS011;49877;50.398;30.324;2022-08-21T03:10:21;26.10;;;9.43;;
18168;SDS011;49877;50.398;30.324;2022-08-21T03:12:48;24.43;;;8.30;;
18168;SDS011;49877;50.398;30.324;2022-08-21T03:15:16;30.40;;;8.90;;
18168;SDS011;49877;50.398;30.324;2022-08-21T03:17:45;23.17;;;8.50;;
18168;SDS011;49877;50.398;30.324;2022-08-21T03:20:14;26.40;;;8.00;;
18168;SDS011;49877;50.398;30.324;2022-08-21T03:22:43;26.60;;;7.93;;
18168;SDS011;49877;50.398;30.324;2022-08-21T03:25:11;24.40;;;7.33;;
18168;SDS011;49877;50.398;30.324;2022-08-21T03:27:38;23.40;;;7.27;;
18168;SDS011;49877;50.398;30.324;2022-08-21T03:30:05;26.67;;;7.40;;
18168;SDS011;49877;50.398;30.324;2022-08-21T03:32:34;32.87;;;7.40;;
18168;SDS011;49877;50.398;30.324;2022-08-21T03:35:02;26.13;;;7.43;;
18168;SDS011;49877;50.398;30.324;2022-08-21T03:37:31;25.80;;;7.23;;
18168;SDS011;49877;50.398;30.324;2022-08-21T03:39:58;26.03;;;7.30;;
18168;SDS011;49877;50.398;30.324;2022-08-21T03:42:25;28.07;;;7.93;;
18168;SDS011;49877;50.398;30.324;2022-08-21T03:44:52;25.00;;;7.30;;
18168;SDS011;49877;50.398;30.324;2022-08-21T03:47:19;27.93;;;7.57;;
18168;SDS011;49877;50.398;30.324;2022-08-21T03:49:47;26.13;;;8.17;;
18168;SDS011;49877;50.398;30.324;2022-08-21T03:52:14;34.40;;;7.97;;
18168;SDS011;49877;50.398;30.324;2022-08-21T03:54:43;26.37;;;6.40;;
18168;SDS011;49877;50.398;30.324;2022-08-21T03:57:10;18.23;;;6.60;;
18168;SDS011;49877;50.398;30.324;2022-08-21T03:59:37;21.53;;;6.87;;
18168;SDS011;49877;50.398;30.324;2022-08-21T04:02:05;28.17;;;6.80;;
18168;SDS011;49877;50.398;30.324;2022-08-21T04:04:33;24.03;;;6.90;;
18168;SDS011;49877;50.398;30.324;2022-08-21T04:07:00;25.33;;;7.53;;
18168;SDS011;49877;50.398;30.324;2022-08-21T04:09:28;34.43;;;6.60;;
18168;SDS011;49877;50.398;30.324;2022-08-21T04:11:56;27.90;;;7.23;;
18168;SDS011;49877;50.398;30.324;2022-08-21T04:14:24;28.53;;;7.50;;
18168;SDS011;49877;50.398;30.324;2022-08-21T04:16:52;30.10;;;7.23;;
18168;SDS011;49877;50.398;30.324;2022-08-21T04:19:19;21.60;;;6.43;;
18168;SDS011;49877;50.398;30.324;2022-08-21T04:21:46;26.37;;;6.67;;
18168;SDS011;49877;50.398;30.324;2022-08-21T04:24:14;23.33;;;6.67;;
18168;SDS011;49877;50.398;30.324;2022-08-21T04:26:41;29.67;;;6.37;;
18168;SDS011;49877;50.398;30.324;2022-08-21T04:29:09;23.13;;;6.27;;
18168;SDS011;49877;50.398;30.324;2022-08-21T04:31:37;17.57;;;6.13;;
18168;SDS011;49877;50.398;30.324;2022-08-21T04:34:04;24.40;;;6.53;;
18168;SDS011;49877;50.398;30.324;2022-08-21T04:36:31;23.07;;;6.47;;
18168;SDS011;49877;50.398;30.324;2022-08-21T04:38:58;24.93;;;6.27;;
18168;SDS011;49877;50.398;30.324;2022-08-21T04:41:25;18.23;;;6.10;;
18168;SDS011;49877;50.398;30.324;2022-08-21T04:43:51;27.03;;;6.63;;
18168;SDS011;49877;50.398;30.324;2022-08-21T04:46:21;23.33;;;6.63;;
18168;SDS011;49877;50.398;30.324;2022-08-21T04:48:49;25.53;;;6.80;;
18168;SDS011;49877;50.398;30.324;2022-08-21T04:51:16;21.53;;;6.10;;
18168;SDS011;49877;50.398;30.324;2022-08-21T04:53:49;22.90;;;6.30;;
18168;SDS011;49877;50.398;30.324;2022-08-21T04:56:20;26.17;;;6.50;;
18168;SDS011;49877;50.398;30.324;2022-08-21T04:58:50;22.47;;;5.63;;
18168;SDS011;49877;50.398;30.324;2022-08-21T05:01:19;33.33;;;7.17;;
18168;SDS011;49877;50.398;30.324;2022-08-21T05:03:51;25.07;;;5.70;;
18168;SDS011;49877;50.398;30.324;2022-08-21T05:06:21;21.67;;;6.87;;
18168;SDS011;49877;50.398;30.324;2022-08-21T05:08:50;23.70;;;6.80;;
18168;SDS011;49877;50.398;30.324;2022-08-21T05:11:20;24.50;;;6.20;;
18168;SDS011;49877;50.398;30.324;2022-08-21T05:13:47;30.47;;;7.17;;
18168;SDS011;49877;50.398;30.324;2022-08-21T05:16:14;24.07;;;6.27;;
18168;SDS011;49877;50.398;30.324;2022-08-21T05:18:43;23.13;;;5.80;;
18168;SDS011;49877;50.398;30.324;2022-08-21T05:21:10;24.53;;;5.87;;
18168;SDS011;49877;50.398;30.324;2022-08-21T05:23:37;18.47;;;5.97;;
18168;SDS011;49877;50.398;30.324;2022-08-21T05:26:04;23.17;;;5.90;;
18168;SDS011;49877;50.398;30.324;2022-08-21T05:28:31;22.87;;;5.87;;
18168;SDS011;49877;50.398;30.324;2022-08-21T05:30:58;22.67;;;5.30;;
18168;SDS011;49877;50.398;30.324;2022-08-21T05:33:25;23.47;;;5.97;;
18168;SDS011;49877;50.398;30.324;2022-08-21T05:35:53;24.57;;;5.43;;
18168;SDS011;49877;50.398;30.324;2022-08-21T05:38:21;25.90;;;6.17;;
18168;SDS011;49877;50.398;30.324;2022-08-21T05:40:48;25.13;;;5.63;;
18168;SDS011;49877;50.398;30.324;2022-08-21T05:43:15;29.50;;;6.47;;
18168;SDS011;49877;50.398;30.324;2022-08-21T05:45:42;21.73;;;5.97;;
18168;SDS011;49877;50.398;30.324;2022-08-21T05:48:10;29.67;;;5.67;;
18168;SDS011;49877;50.398;30.324;2022-08-21T05:50:38;24.93;;;6.17;;
18168;SDS011;49877;50.398;30.324;2022-08-21T05:53:07;22.97;;;5.30;;
18168;SDS011;49877;50.398;30.324;2022-08-21T05:55:35;27.57;;;6.20;;
18168;SDS011;49877;50.398;30.324;2022-08-21T05:58:03;26.80;;;6.67;;
18168;SDS011;49877;50.398;30.324;2022-08-21T06:00:30;26.30;;;5.33;;
18168;SDS011;49877;50.398;30.324;2022-08-21T06:02:57;26.73;;;7.73;;
18168;SDS011;49877;50.398;30.324;2022-08-21T06:05:24;25.77;;;6.00;;
18168;SDS011;49877;50.398;30.324;2022-08-21T06:07:51;22.60;;;5.50;;
18168;SDS011;49877;50.398;30.324;2022-08-21T06:10:20;18.17;;;5.20;;
18168;SDS011;49877;50.398;30.324;2022-08-21T06:12:47;33.57;;;9.33;;
18168;SDS011;49877;50.398;30.324;2022-08-21T06:15:20;25.73;;;6.20;;
18168;SDS011;49877;50.398;30.324;2022-08-21T06:17:47;29.13;;;5.43;;
18168;SDS011;49877;50.398;30.324;2022-08-21T06:20:13;18.63;;;5.40;;
18168;SDS011;49877;50.398;30.324;2022-08-21T06:22:40;26.50;;;5.23;;
18168;SDS011;49877;50.398;30.324;2022-08-21T06:25:08;32.07;;;5.60;;
18168;SDS011;49877;50.398;30.324;2022-08-21T06:27:37;23.60;;;6.17;;
18168;SDS011;49877;50.398;30.324;2022-08-21T06:30:04;23.27;;;6.07;;
18168;SDS011;49877;50.398;30.324;2022-08-21T06:32:32;22.47;;;5.77;;
18168;SDS011;49877;50.398;30.324;2022-08-21T06:34:59;20.20;;;5.00;;
18168;SDS011;49877;50.398;30.324;2022-08-21T06:37:26;21.97;;;5.30;;
18168;SDS011;49877;50.398;30.324;2022-08-21T06:39:53;35.27;;;6.07;;
18168;SDS011;49877;50.398;30.324;2022-08-21T06:42:20;24.87;;;5.80;;
18168;SDS011;49877;50.398;30.324;2022-08-21T06:44:48;24.50;;;5.83;;
18168;SDS011;49877;50.398;30.324;2022-08-21T06:47:15;23.63;;;6.37;;
18168;SDS011;49877;50.398;30.324;2022-08-21T06:49:42;23.60;;;5.70;;
18168;SDS011;49877;50.398;30.324;2022-08-21T06:52:09;27.37;;;6.00;;
18168;SDS011;49877;50.398;30.324;2022-08-21T06:54:37;26.20;;;5.87;;
18168;SDS011;49877;50.398;30.324;2022-08-21T06:57:04;22.23;;;6.57;;
18168;SDS011;49877;50.398;30.324;2022-08-21T06:59:31;28.90;;;5.50;;
18168;SDS011;49877;50.398;30.324;2022-08-21T07:02:00;20.37;;;5.67;;
18168;SDS011;49877;50.398;30.324;2022-08-21T07:04:27;28.97;;;5.83;;
18168;SDS011;49877;50.398;30.324;2022-08-21T07:06:54;21.23;;;5.67;;
18168;SDS011;49877;50.398;30.324;2022-08-21T07:09:21;20.03;;;5.27;;
18168;SDS011;49877;50.398;30.324;2022-08-21T07:11:49;24.83;;;5.47;;
18168;SDS011;49877;50.398;30.324;2022-08-21T07:14:18;30.70;;;6.37;;
18168;SDS011;49877;50.398;30.324;2022-08-21T07:16:45;23.73;;;6.30;;
18168;SDS011;49877;50.398;30.324;2022-08-21T07:19:13;22.07;;;5.30;;
18168;SDS011;49877;50.398;30.324;2022-08-21T07:21:40;20.70;;;5.53;;
18168;SDS011;49877;50.398;30.324;2022-08-21T07:24:07;23.47;;;5.90;;
18168;SDS011;49877;50.398;30.324;2022-08-21T07:26:34;30.67;;;6.30;;
18168;SDS011;49877;50.398;30.324;2022-08-21T07:29:01;26.63;;;6.07;;
18168;SDS011;49877;50.398;30.324;2022-08-21T07:31:28;28.67;;;5.60;;
18168;SDS011;49877;50.398;30.324;2022-08-21T07:33:55;26.23;;;5.83;;
18168;SDS011;49877;50.398;30.324;2022-08-21T07:36:24;20.30;;;5.73;;
18168;SDS011;49877;50.398;30.324;2022-08-21T07:38:51;20.37;;;6.00;;
18168;SDS011;49877;50.398;30.324;2022-08-21T07:41:22;24.93;;;5.87;;
18168;SDS011;49877;50.398;30.324;2022-08-21T07:43:50;23.00;;;5.87;;
18168;SDS011;49877;50.398;30.324;2022-08-21T07:46:17;21.37;;;6.07;;
18168;SDS011;49877;50.398;30.324;2022-08-21T07:48:44;25.70;;;6.13;;
18168;SDS011;49877;50.398;30.324;2022-08-21T07:51:12;23.20;;;6.20;;
18168;SDS011;49877;50.398;30.324;2022-08-21T07:53:46;29.40;;;6.13;;
18168;SDS011;49877;50.398;30.324;2022-08-21T07:56:14;19.83;;;5.60;;
18168;SDS011;49877;50.398;30.324;2022-08-21T07:58:41;24.10;;;5.90;;
18168;SDS011;49877;50.398;30.324;2022-08-21T08:01:07;26.63;;;6.37;;
18168;SDS011;49877;50.398;30.324;2022-08-21T08:03:34;23.73;;;6.63;;
18168;SDS011;49877;50.398;30.324;2022-08-21T08:06:01;18.97;;;5.77;;
18168;SDS011;49877;50.398;30.324;2022-08-21T08:08:29;24.73;;;6.30;;
18168;SDS011;49877;50.398;30.324;2022-08-21T08:10:58;20.97;;;5.53;;
18168;SDS011;49877;50.398;30.324;2022-08-21T08:13:26;21.83;;;5.77;;
18168;SDS011;49877;50.398;30.324;2022-08-21T08:15:53;16.70;;;5.17;;
18168;SDS011;49877;50.398;30.324;2022-08-21T08:18:20;29.90;;;6.90;;
18168;SDS011;49877;50.398;30.324;2022-08-21T08:20:47;20.37;;;5.60;;
18168;SDS011;49877;50.398;30.324;2022-08-21T08:23:14;23.27;;;6.10;;
18168;SDS011;49877;50.398;30.324;2022-08-21T08:25:41;19.77;;;6.67;;
18168;SDS011;49877;50.398;30.324;2022-08-21T08:28:09;21.63;;;6.73;;
18168;SDS011;49877;50.398;30.324;2022-08-21T08:30:36;23.00;;;6.17;;
18168;SDS011;49877;50.398;30.324;2022-08-21T08:33:03;26.67;;;7.03;;
18168;SDS011;49877;50.398;30.324;2022-08-21T08:35:30;22.47;;;6.13;;
18168;SDS011;49877;50.398;30.324;2022-08-21T08:37:57;30.27;;;6.40;;
18168;SDS011;49877;50.398;30.324;2022-08-21T08:40:28;25.27;;;5.70;;
18168;SDS011;49877;50.398;30.324;2022-08-21T08:43:01;25.57;;;6.03;;
18168;SDS011;49877;50.398;30.324;2022-08-21T08:45:29;20.73;;;5.63;;
18168;SDS011;49877;50.398;30.324;2022-08-21T08:48:02;27.20;;;6.17;;
18168;SDS011;49877;50.398;30.324;2022-08-21T08:50:36;26.07;;;6.07;;
18168;SDS011;49877;50.398;30.324;2022-08-21T08:53:07;28.60;;;5.80;;
18168;SDS011;49877;50.398;30.324;2022-08-21T08:55:39;20.93;;;5.37;;
18168;SDS011;49877;50.398;30.324;2022-08-21T08:58:09;22.97;;;5.90;;
18168;SDS011;49877;50.398;30.324;2022-08-21T09:00:43;28.77;;;5.30;;
18168;SDS011;49877;50.398;30.324;2022-08-21T09:03:13;26.80;;;5.60;;
18168;SDS011;49877;50.398;30.324;2022-08-21T09:05:43;21.53;;;6.20;;
18168;SDS011;49877;50.398;30.324;2022-08-21T09:08:20;21.73;;;5.63;;
18168;SDS011;49877;50.398;30.324;2022-08-21T09:11:02;26.50;;;5.53;;
18168;SDS011;49877;50.398;30.324;2022-08-21T09:13:35;23.42;;;5.93;;
18168;SDS011;49877;50.398;30.324;2022-08-21T09:16:12;23.20;;;5.43;;
18168;SDS011;49877;50.398;30.324;2022-08-21T09:18:50;26.73;;;5.38;;
18168;SDS011;49877;50.398;30.324;2022-08-21T09:21:25;41.60;;;5.50;;
18168;SDS011;49877;50.398;30.324;2022-08-21T09:23:58;23.83;;;5.87;;
18168;SDS011;49877;50.398;30.324;2022-08-21T09:26:29;24.35;;;5.35;;
18168;SDS011;49877;50.398;30.324;2022-08-21T09:29:02;19.08;;;5.63;;
18168;SDS011;49877;50.398;30.324;2022-08-21T09:31:33;21.08;;;5.43;;
18168;SDS011;49877;50.398;30.324;2022-08-21T09:34:03;25.77;;;5.55;;
18168;SDS011;49877;50.398;30.324;2022-08-21T09:36:35;20.77;;;5.68;;
18168;SDS011;49877;50.398;30.324;2022-08-21T09:39:05;24.45;;;5.57;;
18168;SDS011;49877;50.398;30.324;2022-08-21T09:41:33;26.85;;;5.47;;
18168;SDS011;49877;50.398;30.324;2022-08-21T09:44:02;24.90;;;5.35;;
18168;SDS011;49877;50.398;30.324;2022-08-21T09:46:30;29.65;;;5.35;;
18168;SDS011;49877;50.398;30.324;2022-08-21T09:48:59;20.40;;;5.15;;
18168;SDS011;49877;50.398;30.324;2022-08-21T09:51:29;25.67;;;5.10;;
18168;SDS011;49877;50.398;30.324;2022-08-21T09:54:10;23.45;;;5.00;;
18168;SDS011;49877;50.398;30.324;2022-08-21T09:56:51;21.02;;;5.30;;
18168;SDS011;49877;50.398;30.324;2022-08-21T09:59:38;25.90;;;5.43;;
18168;SDS011;49877;50.398;30.324;2022-08-21T10:02:18;23.52;;;5.60;;
18168;SDS011;49877;50.398;30.324;2022-08-21T10:04:53;21.52;;;5.35;;
18168;SDS011;49877;50.398;30.324;2022-08-21T10:07:23;27.38;;;4.70;;
18168;SDS011;49877;50.398;30.324;2022-08-21T10:09:58;26.75;;;5.25;;
18168;SDS011;49877;50.398;30.324;2022-08-21T10:12:28;28.50;;;5.18;;
18168;SDS011;49877;50.398;30.324;2022-08-21T10:15:03;20.98;;;4.50;;
18168;SDS011;49877;50.398;30.324;2022-08-21T10:17:48;20.08;;;4.55;;
18168;SDS011;49877;50.398;30.324;2022-08-21T10:20:25;26.80;;;4.50;;
18168;SDS011;49877;50.398;30.324;2022-08-21T10:23:05;21.52;;;4.55;;
18168;SDS011;49877;50.398;30.324;2022-08-21T10:25:44;24.88;;;4.82;;
18168;SDS011;49877;50.398;30.324;2022-08-21T10:28:19;23.85;;;5.93;;
18168;SDS011;49877;50.398;30.324;2022-08-21T10:30:52;25.90;;;4.65;;
18168;SDS011;49877;50.398;30.324;2022-08-21T10:33:25;23.65;;;5.03;;
18168;SDS011;49877;50.398;30.324;2022-08-21T10:36:00;24.17;;;6.00;;
18168;SDS011;49877;50.398;30.324;2022-08-21T10:38:46;31.92;;;4.55;;
18168;SDS011;49877;50.398;30.324;2022-08-21T10:41:23;20.30;;;4.82;;
18168;SDS011;49877;50.398;30.324;2022-08-21T10:43:59;20.50;;;3.45;;
18168;SDS011;49877;50.398;30.324;2022-08-21T10:46:38;25.60;;;4.82;;
18168;SDS011;49877;50.398;30.324;2022-08-21T10:49:17;20.13;;;4.00;;
18168;SDS011;49877;50.398;30.324;2022-08-21T10:51:55;22.25;;;4.50;;
18168;SDS011;49877;50.398;30.324;2022-08-21T10:54:32;27.48;;;4.90;;
18168;SDS011;49877;50.398;30.324;2022-08-21T10:57:08;16.90;;;4.07;;
18168;SDS011;49877;50.398;30.324;2022-08-21T10:59:42;20.58;;;4.32;;
18168;SDS011;49877;50.398;30.324;2022-08-21T11:02:22;18.90;;;4.53;;
18168;SDS011;49877;50.398;30.324;2022-08-21T11:04:54;20.23;;;4.38;;
18168;SDS011;49877;50.398;30.324;2022-08-21T11:07:29;20.48;;;3.97;;
18168;SDS011;49877;50.398;30.324;2022-08-21T11:10:00;19.08;;;4.47;;
18168;SDS011;49877;50.398;30.324;2022-08-21T11:12:33;18.80;;;4.70;;
18168;SDS011;49877;50.398;30.324;2022-08-21T11:15:06;15.88;;;4.43;;
18168;SDS011;49877;50.398;30.324;2022-08-21T11:17:47;19.40;;;4.07;;
18168;SDS011;49877;50.398;30.324;2022-08-21T11:20:21;27.17;;;4.70;;
18168;SDS011;49877;50.398;30.324;2022-08-21T11:22:56;30.27;;;4.35;;
18168;SDS011;49877;50.398;30.324;2022-08-21T11:25:29;25.38;;;4.70;;
18168;SDS011;49877;50.398;30.324;2022-08-21T11:28:05;19.98;;;4.80;;
18168;SDS011;49877;50.398;30.324;2022-08-21T11:30:39;19.65;;;4.05;;
18168;SDS011;49877;50.398;30.324;2022-08-21T11:33:17;23.10;;;4.30;;
18168;SDS011;49877;50.398;30.324;2022-08-21T11:35:56;21.98;;;4.35;;
18168;SDS011;49877;50.398;30.324;2022-08-21T11:38:33;18.30;;;4.30;;
18168;SDS011;49877;50.398;30.324;2022-08-21T11:41:13;23.15;;;4.72;;
18168;SDS011;49877;50.398;30.324;2022-08-21T11:43:51;20.38;;;4.05;;
18168;SDS011;49877;50.398;30.324;2022-08-21T11:46:25;17.30;;;4.20;;
18168;SDS011;49877;50.398;30.324;2022-08-21T11:49:04;23.38;;;4.45;;
18168;SDS011;49877;50.398;30.324;2022-08-21T11:51:43;17.83;;;4.63;;
18168;SDS011;49877;50.398;30.324;2022-08-21T11:54:20;22.77;;;5.03;;
18168;SDS011;49877;50.398;30.324;2022-08-21T11:56:54;20.52;;;4.90;;
18168;SDS011;49877;50.398;30.324;2022-08-21T11:59:26;29.67;;;4.82;;
18168;SDS011;49877;50.398;30.324;2022-08-21T12:02:02;20.15;;;4.85;;
18168;SDS011;49877;50.398;30.324;2022-08-21T12:04:35;22.95;;;5.30;;
18168;SDS011;49877;50.398;30.324;2022-08-21T12:07:11;22.45;;;4.63;;
18168;SDS011;49877;50.398;30.324;2022-08-21T12:09:40;25.63;;;3.88;;
18168;SDS011;49877;50.398;30.324;2022-08-21T12:12:23;33.25;;;5.22;;
18168;SDS011;49877;50.398;30.324;2022-08-21T12:15:02;24.73;;;4.70;;
18168;SDS011;49877;50.398;30.324;2022-08-21T12:17:37;26.33;;;4.60;;
18168;SDS011;49877;50.398;30.324;2022-08-21T12:20:15;14.63;;;3.95;;
18168;SDS011;49877;50.398;30.324;2022-08-21T12:22:49;21.55;;;4.68;;
18168;SDS011;49877;50.398;30.324;2022-08-21T12:25:20;19.23;;;4.13;;
18168;SDS011;49877;50.398;30.324;2022-08-21T12:27:49;24.60;;;5.63;;
18168;SDS011;49877;50.398;30.324;2022-08-21T12:30:21;20.05;;;4.53;;
18168;SDS011;49877;50.398;30.324;2022-08-21T12:33:00;20.48;;;4.40;;
18168;SDS011;49877;50.398;30.324;2022-08-21T12:35:31;15.88;;;4.07;;
18168;SDS011;49877;50.398;30.324;2022-08-21T12:38:06;17.27;;;3.58;;
18168;SDS011;49877;50.398;30.324;2022-08-21T12:40:41;25.40;;;3.80;;
18168;SDS011;49877;50.398;30.324;2022-08-21T12:43:11;17.40;;;4.03;;
18168;SDS011;49877;50.398;30.324;2022-08-21T12:45:43;17.17;;;4.00;;
18168;SDS011;49877;50.398;30.324;2022-08-21T12:48:13;16.50;;;4.13;;
18168;SDS011;49877;50.398;30.324;2022-08-21T12:50:48;16.35;;;4.20;;
18168;SDS011;49877;50.398;30.324;2022-08-21T12:53:20;16.63;;;3.33;;
18168;SDS011;49877;50.398;30.324;2022-08-21T12:55:57;17.50;;;3.85;;
18168;SDS011;49877;50.398;30.324;2022-08-21T12:58:28;19.65;;;4.20;;
18168;SDS011;49877;50.398;30.324;2022-08-21T13:00:59;19.75;;;3.50;;
18168;SDS011;49877;50.398;30.324;2022-08-21T13:03:30;20.25;;;3.60;;
18168;SDS011;49877;50.398;30.324;2022-08-21T13:06:00;18.98;;;4.38;;
18168;SDS011;49877;50.398;30.324;2022-08-21T13:08:29;22.23;;;4.90;;
18168;SDS011;49877;50.398;30.324;2022-08-21T13:11:00;26.92;;;5.07;;
18168;SDS011;49877;50.398;30.324;2022-08-21T13:13:29;31.67;;;4.78;;
18168;SDS011;49877;50.398;30.324;2022-08-21T13:15:57;21.02;;;4.35;;
18168;SDS011;49877;50.398;30.324;2022-08-21T13:18:27;19.42;;;3.95;;
18168;SDS011;49877;50.398;30.324;2022-08-21T13:21:02;19.48;;;4.45;;
18168;SDS011;49877;50.398;30.324;2022-08-21T13:23:31;13.75;;;3.78;;
18168;SDS011;49877;50.398;30.324;2022-08-21T13:26:00;16.83;;;3.88;;
18168;SDS011;49877;50.398;30.324;2022-08-21T13:28:37;14.52;;;3.25;;
18168;SDS011;49877;50.398;30.324;2022-08-21T13:31:06;18.05;;;4.10;;
18168;SDS011;49877;50.398;30.324;2022-08-21T13:33:36;15.45;;;3.42;;
18168;SDS011;49877;50.398;30.324;2022-08-21T13:36:08;22.00;;;4.45;;
18168;SDS011;49877;50.398;30.324;2022-08-21T13:38:37;16.58;;;3.90;;
18168;SDS011;49877;50.398;30.324;2022-08-21T13:41:10;21.17;;;4.18;;
18168;SDS011;49877;50.398;30.324;2022-08-21T13:43:48;25.08;;;4.30;;
18168;SDS011;49877;50.398;30.324;2022-08-21T13:46:16;30.35;;;4.43;;
18168;SDS011;49877;50.398;30.324;2022-08-21T13:48:44;20.25;;;3.88;;
18168;SDS011;49877;50.398;30.324;2022-08-21T13:51:11;20.30;;;4.18;;
18168;SDS011;49877;50.398;30.324;2022-08-21T13:53:44;17.50;;;3.95;;
18168;SDS011;49877;50.398;30.324;2022-08-21T13:56:23;16.30;;;3.72;;
18168;SDS011;49877;50.398;30.324;2022-08-21T13:58:52;25.38;;;4.97;;
18168;SDS011;49877;50.398;30.324;2022-08-21T14:01:22;20.73;;;4.10;;
18168;SDS011;49877;50.398;30.324;2022-08-21T14:03:52;17.52;;;4.13;;
18168;SDS011;49877;50.398;30.324;2022-08-21T14:06:22;20.00;;;3.67;;
18168;SDS011;49877;50.398;30.324;2022-08-21T14:08:52;21.55;;;4.00;;
18168;SDS011;49877;50.398;30.324;2022-08-21T14:11:24;22.15;;;3.47;;
18168;SDS011;49877;50.398;30.324;2022-08-21T14:13:56;28.90;;;4.40;;
18168;SDS011;49877;50.398;30.324;2022-08-21T14:16:25;14.80;;;3.70;;
18168;SDS011;49877;50.398;30.324;2022-08-21T14:19:07;20.20;;;4.22;;
18168;SDS011;49877;50.398;30.324;2022-08-21T14:21:37;22.92;;;4.03;;
18168;SDS011;49877;50.398;30.324;2022-08-21T14:24:09;15.20;;;3.80;;
18168;SDS011;49877;50.398;30.324;2022-08-21T14:26:44;23.60;;;4.15;;
18168;SDS011;49877;50.398;30.324;2022-08-21T14:29:13;23.17;;;3.70;;
18168;SDS011;49877;50.398;30.324;2022-08-21T14:31:42;25.95;;;4.22;;
18168;SDS011;49877;50.398;30.324;2022-08-21T14:34:10;19.20;;;4.30;;
18168;SDS011;49877;50.398;30.324;2022-08-21T14:36:40;26.58;;;4.28;;